createdAt,value
2016-11-20T00:00:33.458Z,24.47
2016-11-20T00:01:33.803Z,24.45
2016-11-20T00:02:32.845Z,24.49
2016-11-20T00:03:33.529Z,24.42
2016-11-20T00:04:33.429Z,24.43
2016-11-20T00:05:33.128Z,24.47
2016-11-20T00:06:32.819Z,24.46
2016-11-20T00:07:33.148Z,24.4
2016-11-20T00:08:33.151Z,24.45
2016-11-20T00:09:32.889Z,24.47
2016-11-20T00:10:32.852Z,24.42
2016-11-20T00:11:33.218Z,24.49
2016-11-20T00:12:34.226Z,24.43
2016-11-20T00:13:33.185Z,24.49
2016-11-20T00:14:33.500Z,24.35
2016-11-20T00:15:33.200Z,24.46
2016-11-20T00:16:33.566Z,24.42
2016-11-20T00:17:32.942Z,24.46
2016-11-20T00:18:33.530Z,24.47
2016-11-20T00:19:33.217Z,24.47
2016-11-20T00:20:33.233Z,24.43
2016-11-20T00:21:33.288Z,24.47
2016-11-20T00:22:33.558Z,24.42
2016-11-20T00:23:33.306Z,24.47
2016-11-20T00:24:33.359Z,24.43
2016-11-20T00:25:33.312Z,24.47
2016-11-20T00:26:33.683Z,24.49
2016-11-20T00:27:33.278Z,24.55
2016-11-20T00:28:33.131Z,24.52
2016-11-20T00:29:33.290Z,24.45
2016-11-20T00:30:33.753Z,24.45
2016-11-20T00:31:33.616Z,24.43
2016-11-20T00:32:33.627Z,24.53
2016-11-20T00:33:33.367Z,24.45
2016-11-20T00:34:33.641Z,24.46
2016-11-20T00:35:33.331Z,24.4
2016-11-20T00:36:33.042Z,24.46
2016-11-20T00:37:33.041Z,24.55
2016-11-20T00:38:33.662Z,24.52
2016-11-20T00:39:33.674Z,24.45
2016-11-20T00:40:33.677Z,24.47
2016-11-20T00:41:34.424Z,24.47
2016-11-20T00:42:33.430Z,24.49
2016-11-20T00:43:33.937Z,24.52
2016-11-20T00:44:33.704Z,24.47
2016-11-20T00:45:33.395Z,24.5
2016-11-20T00:46:33.772Z,24.5
2016-11-20T00:47:33.151Z,24.45
2016-11-20T00:48:33.473Z,24.39
2016-11-20T00:49:33.429Z,24.42
2016-11-20T00:50:33.795Z,24.47
2016-11-20T00:51:33.489Z,24.45
2016-11-20T00:52:33.445Z,24.47
2016-11-20T00:53:33.765Z,24.46
2016-11-20T00:54:34.498Z,24.49
2016-11-20T00:55:33.468Z,24.37
2016-11-20T00:56:33.471Z,24.5
2016-11-20T00:57:33.841Z,24.5
2016-11-20T00:58:33.489Z,24.37
2016-11-20T00:59:33.806Z,24.47
2016-11-20T01:00:33.205Z,24.35
2016-11-20T01:01:33.505Z,24.4
2016-11-20T01:02:33.248Z,24.39
2016-11-20T01:03:33.539Z,24.39
2016-11-20T01:04:33.843Z,24.5
2016-11-20T01:05:35.335Z,24.31
2016-11-20T01:06:33.229Z,24.28
2016-11-20T01:07:33.545Z,24.39
2016-11-20T01:08:33.867Z,24.42
2016-11-20T01:09:33.560Z,24.35
2016-11-20T01:10:33.350Z,24.4
2016-11-20T01:11:33.884Z,24.32
2016-11-20T01:12:33.265Z,24.37
2016-11-20T01:13:33.587Z,24.39
2016-11-20T01:14:33.908Z,24.42
2016-11-20T01:15:33.961Z,24.46
2016-11-20T01:16:33.293Z,24.37
2016-11-20T01:17:33.612Z,24.42
2016-11-20T01:18:33.624Z,24.37
2016-11-20T01:19:33.628Z,24.42
2016-11-20T01:20:33.369Z,24.46
2016-11-20T01:21:33.954Z,24.42
2016-11-20T01:22:34.014Z,24.4
2016-11-20T01:23:33.341Z,24.39
2016-11-20T01:24:33.661Z,24.39
2016-11-20T01:25:34.371Z,24.39
2016-11-20T01:26:33.988Z,24.42
2016-11-20T01:27:33.779Z,24.43
2016-11-20T01:28:33.768Z,24.46
2016-11-20T01:29:34.060Z,24.43
2016-11-20T01:30:33.393Z,24.43
2016-11-20T01:31:33.711Z,24.39
2016-11-20T01:32:34.049Z,24.45
2016-11-20T01:33:34.086Z,24.34
2016-11-20T01:34:34.043Z,24.35
2016-11-20T01:35:33.735Z,24.27
2016-11-20T01:36:34.630Z,24.39
2016-11-20T01:37:34.114Z,24.35
2016-11-20T01:38:34.068Z,24.32
2016-11-20T01:39:33.762Z,24.35
2016-11-20T01:40:34.133Z,24.37
2016-11-20T01:41:33.777Z,24.35
2016-11-20T01:42:33.884Z,24.35
2016-11-20T01:43:33.796Z,24.31
2016-11-20T01:44:34.111Z,24.27
2016-11-20T01:45:33.854Z,24.3
2016-11-20T01:46:33.547Z,24.22
2016-11-20T01:47:35.070Z,24.25
2016-11-20T01:48:33.512Z,24.3
2016-11-20T01:49:33.921Z,24.28
2016-11-20T01:50:33.840Z,24.37
2016-11-20T01:51:34.157Z,24.3
2016-11-20T01:52:34.169Z,24.3
2016-11-20T01:53:33.863Z,24.3
2016-11-20T01:54:33.915Z,24.28
2016-11-20T01:55:33.652Z,24.24
2016-11-20T01:56:34.195Z,24.25
2016-11-20T01:57:33.887Z,24.3
2016-11-20T01:58:35.550Z,24.28
2016-11-20T01:59:33.645Z,24.3
2016-11-20T02:00:34.803Z,24.25
2016-11-20T02:01:33.911Z,24.31
2016-11-20T02:02:34.281Z,24.34
2016-11-20T02:03:33.926Z,24.32
2016-11-20T02:04:33.621Z,24.32
2016-11-20T02:05:34.253Z,24.31
2016-11-20T02:06:33.947Z,24.34
2016-11-20T02:07:34.008Z,24.3
2016-11-20T02:08:33.960Z,24.27
2016-11-20T02:09:34.381Z,24.28
2016-11-20T02:10:34.345Z,24.25
2016-11-20T02:11:33.670Z,24.31
2016-11-20T02:12:33.988Z,24.27
2016-11-20T02:13:34.044Z,24.25
2016-11-20T02:14:33.739Z,24.24
2016-11-20T02:15:33.699Z,24.27
2016-11-20T02:16:34.017Z,24.2
2016-11-20T02:17:34.042Z,24.22
2016-11-20T02:18:34.395Z,24.21
2016-11-20T02:19:34.398Z,24.18
2016-11-20T02:20:33.884Z,24.21
2016-11-20T02:21:34.467Z,24.25
2016-11-20T02:22:34.107Z,24.22
2016-11-20T02:23:33.799Z,24.24
2016-11-20T02:24:33.809Z,24.21
2016-11-20T02:25:34.442Z,24.25
2016-11-20T02:26:34.084Z,24.22
2016-11-20T02:27:34.124Z,24.22
2016-11-20T02:28:34.146Z,24.2
2016-11-20T02:29:34.102Z,24.2
2016-11-20T02:30:34.212Z,24.25
2016-11-20T02:31:34.485Z,24.18
2016-11-20T02:32:34.126Z,24.21
2016-11-20T02:33:34.447Z,24.18
2016-11-20T02:34:34.194Z,24.28
2016-11-20T02:35:34.198Z,24.18
2016-11-20T02:36:34.448Z,24.18
2016-11-20T02:37:34.209Z,24.16
2016-11-20T02:38:34.200Z,24.21
2016-11-20T02:39:34.175Z,24.18
2016-11-20T02:40:33.865Z,24.18
2016-11-20T02:41:34.548Z,24.21
2016-11-20T02:42:34.650Z,24.13
2016-11-20T02:43:34.200Z,24.22
2016-11-20T02:44:34.461Z,24.24
2016-11-20T02:45:34.523Z,24.18
2016-11-20T02:46:34.221Z,24.16
2016-11-20T02:47:34.589Z,24.28
2016-11-20T02:48:33.973Z,24.16
2016-11-20T02:49:33.975Z,24.16
2016-11-20T02:50:34.245Z,24.2
2016-11-20T02:51:34.308Z,24.16
2016-11-20T02:52:34.313Z,24.21
2016-11-20T02:53:35.105Z,24.22
2016-11-20T02:54:34.273Z,24.16
2016-11-20T02:55:35.082Z,24.15
2016-11-20T02:56:34.597Z,24.13
2016-11-20T02:57:34.605Z,24.09
2016-11-20T02:58:34.352Z,24.18
2016-11-20T02:59:34.336Z,24.1
2016-11-20T03:00:34.396Z,24.12
2016-11-20T03:01:34.685Z,24.13
2016-11-20T03:02:34.016Z,24.16
2016-11-20T03:03:34.072Z,24.13
2016-11-20T03:04:35.677Z,24.16
2016-11-20T03:05:34.345Z,24.09
2016-11-20T03:06:35.651Z,24.16
2016-11-20T03:07:34.681Z,24.09
2016-11-20T03:08:34.053Z,24.06
2016-11-20T03:09:34.732Z,24.18
2016-11-20T03:10:34.070Z,24.08
2016-11-20T03:11:34.705Z,24.13
2016-11-20T03:12:34.395Z,24.08
2016-11-20T03:13:34.449Z,24.12
2016-11-20T03:14:34.770Z,24.08
2016-11-20T03:15:34.765Z,24.13
2016-11-20T03:16:34.457Z,24.1
2016-11-20T03:17:34.218Z,24.12
2016-11-20T03:18:34.172Z,24.18
2016-11-20T03:19:34.752Z,24.21
2016-11-20T03:20:34.454Z,24.15
2016-11-20T03:21:34.455Z,24.16
2016-11-20T03:22:34.468Z,24.1
2016-11-20T03:23:34.157Z,24.13
2016-11-20T03:24:34.523Z,24.05
2016-11-20T03:25:34.170Z,24.21
2016-11-20T03:26:35.051Z,24.15
2016-11-20T03:27:34.856Z,24.16
2016-11-20T03:28:34.502Z,24.18
2016-11-20T03:29:34.247Z,24.18
2016-11-20T03:30:34.512Z,24.06
2016-11-20T03:31:34.836Z,24.08
2016-11-20T03:32:34.531Z,24.08
2016-11-20T03:33:34.637Z,24.15
2016-11-20T03:34:34.539Z,24.13
2016-11-20T03:35:34.546Z,24.09
2016-11-20T03:36:34.557Z,24.08
2016-11-20T03:37:35.677Z,24.1
2016-11-20T03:38:34.881Z,24.13
2016-11-20T03:39:34.924Z,24.06
2016-11-20T03:40:34.582Z,24.13
2016-11-20T03:41:34.376Z,24.09
2016-11-20T03:42:34.285Z,24.1
2016-11-20T03:43:34.912Z,24.12
2016-11-20T03:44:34.605Z,24.13
2016-11-20T03:45:34.980Z,24.15
2016-11-20T03:46:34.621Z,24.1
2016-11-20T03:47:34.988Z,24.13
2016-11-20T03:48:36.437Z,24.12
2016-11-20T03:49:34.328Z,24.12
2016-11-20T03:50:35.351Z,24.16
2016-11-20T03:51:34.658Z,24.13
2016-11-20T03:52:34.716Z,24.05
2016-11-20T03:53:34.411Z,24.1
2016-11-20T03:54:34.676Z,24.08
2016-11-20T03:55:34.418Z,24.12
2016-11-20T03:56:34.374Z,24.15
2016-11-20T03:57:35.205Z,24.12
2016-11-20T03:58:34.703Z,24.21
2016-11-20T03:59:35.023Z,24.16
2016-11-20T04:00:34.712Z,24.15
2016-11-20T04:01:34.407Z,24.12
2016-11-20T04:02:34.725Z,24.16
2016-11-20T04:03:34.733Z,24.12
2016-11-20T04:04:34.840Z,24.18
2016-11-20T04:05:34.794Z,24.18
2016-11-20T04:06:34.752Z,24.18
2016-11-20T04:07:34.821Z,24.05
2016-11-20T04:08:35.116Z,24.15
2016-11-20T04:09:34.565Z,24.12
2016-11-20T04:10:35.077Z,24.12
2016-11-20T04:11:35.098Z,24.08
2016-11-20T04:12:35.153Z,24.08
2016-11-20T04:13:34.489Z,24.03
2016-11-20T04:14:34.855Z,24.06
2016-11-20T04:15:34.810Z,24.1
2016-11-20T04:16:34.820Z,24.13
2016-11-20T04:17:35.240Z,24.09
2016-11-20T04:18:35.143Z,24.18
2016-11-20T04:19:35.679Z,24.15
2016-11-20T04:20:34.995Z,24.1
2016-11-20T04:21:35.755Z,24.06
2016-11-20T04:22:34.543Z,24.1
2016-11-20T04:23:35.230Z,24.08
2016-11-20T04:24:34.559Z,24.08
2016-11-20T04:25:34.876Z,24.06
2016-11-20T04:26:35.197Z,24.08
2016-11-20T04:27:34.891Z,24.15
2016-11-20T04:28:35.210Z,24.03
2016-11-20T04:29:34.639Z,24.1
2016-11-20T04:30:35.887Z,24.02
2016-11-20T04:31:35.331Z,24.05
2016-11-20T04:32:35.664Z,23.97
2016-11-20T04:33:35.243Z,24.03
2016-11-20T04:34:35.535Z,24.06
2016-11-20T04:35:34.944Z,24.05
2016-11-20T04:36:35.002Z,24.06
2016-11-20T04:37:35.320Z,24.08
2016-11-20T04:38:34.964Z,23.95
2016-11-20T04:39:34.969Z,24.03
2016-11-20T04:40:34.974Z,24.05
2016-11-20T04:41:34.980Z,24
2016-11-20T04:42:35.072Z,24.06
2016-11-20T04:43:36.240Z,24.09
2016-11-20T04:45:35.986Z,23.98
2016-11-20T04:46:34.703Z,23.95
2016-11-20T04:47:35.336Z,24.05
2016-11-20T04:48:35.350Z,24.06
2016-11-20T04:49:35.036Z,24.02
2016-11-20T04:50:35.039Z,23.97
2016-11-20T04:51:35.362Z,24
2016-11-20T04:52:35.424Z,24.05
2016-11-20T04:53:35.066Z,24
2016-11-20T04:54:34.793Z,24
2016-11-20T04:55:35.079Z,24.02
2016-11-20T04:56:34.773Z,24.03
2016-11-20T04:57:35.088Z,24
2016-11-20T04:58:35.097Z,23.91
2016-11-20T04:59:35.412Z,23.98
2016-11-20T05:00:35.470Z,23.88
2016-11-20T05:01:35.116Z,23.98
2016-11-20T05:02:35.118Z,23.91
2016-11-20T05:03:35.662Z,23.98
2016-11-20T05:04:35.478Z,24
2016-11-20T05:05:35.450Z,23.97
2016-11-20T05:06:34.884Z,23.97
2016-11-20T05:07:34.840Z,24
2016-11-20T05:08:35.161Z,24.05
2016-11-20T05:09:35.465Z,23.98
2016-11-20T05:10:35.175Z,24
2016-11-20T05:11:35.541Z,23.95
2016-11-20T05:12:35.188Z,23.94
2016-11-20T05:13:34.933Z,23.91
2016-11-20T05:14:36.100Z,23.91
2016-11-20T05:15:35.566Z,23.91
2016-11-20T05:16:35.881Z,23.8
2016-11-20T05:17:35.531Z,23.79
2016-11-20T05:18:34.945Z,23.87
2016-11-20T05:19:35.547Z,23.9
2016-11-20T05:20:35.288Z,23.94
2016-11-20T05:21:35.554Z,23.78
2016-11-20T05:22:35.252Z,23.95
2016-11-20T05:23:35.256Z,23.85
2016-11-20T05:24:35.271Z,23.88
2016-11-20T05:25:36.252Z,23.9
2016-11-20T05:26:34.969Z,23.88
2016-11-20T05:27:36.263Z,23.78
2016-11-20T05:28:35.652Z,23.88
2016-11-20T05:29:35.300Z,23.8
2016-11-20T05:30:35.615Z,23.87
2016-11-20T05:31:35.656Z,23.84
2016-11-20T05:32:35.001Z,23.8
2016-11-20T05:33:35.351Z,23.79
2016-11-20T05:34:35.012Z,23.8
2016-11-20T05:35:35.019Z,23.85
2016-11-20T05:36:35.079Z,23.79
2016-11-20T05:37:35.344Z,23.85
2016-11-20T05:38:37.046Z,23.8
2016-11-20T05:39:35.671Z,23.73
2016-11-20T05:40:35.366Z,23.85
2016-11-20T05:41:35.688Z,23.78
2016-11-20T05:42:35.379Z,23.87
2016-11-20T05:43:35.125Z,23.84
2016-11-20T05:44:35.397Z,23.78
2016-11-20T05:45:35.763Z,23.65
2016-11-20T05:46:35.405Z,23.72
2016-11-20T05:47:35.776Z,23.76
2016-11-20T05:48:35.159Z,23.72
2016-11-20T05:49:35.527Z,23.69
2016-11-20T05:50:35.429Z,23.73
2016-11-20T05:51:35.126Z,23.68
2016-11-20T05:52:35.494Z,23.73
2016-11-20T05:53:35.763Z,23.75
2016-11-20T05:54:35.823Z,23.66
2016-11-20T05:55:35.469Z,23.72
2016-11-20T05:56:35.477Z,23.63
2016-11-20T05:57:35.474Z,23.7
2016-11-20T05:58:36.024Z,23.72
2016-11-20T05:59:35.803Z,23.7
2016-11-20T06:00:35.511Z,23.65
2016-11-20T06:01:35.813Z,23.72
2016-11-20T06:02:35.508Z,23.65
2016-11-20T06:03:35.825Z,23.65
2016-11-20T06:04:35.212Z,23.79
2016-11-20T06:05:35.581Z,23.58
2016-11-20T06:06:35.273Z,23.54
2016-11-20T06:07:35.854Z,23.75
2016-11-20T06:08:35.862Z,23.65
2016-11-20T06:09:36.477Z,23.7
2016-11-20T06:10:35.925Z,23.57
2016-11-20T06:11:35.882Z,23.54
2016-11-20T06:12:35.890Z,23.68
2016-11-20T06:13:35.269Z,23.66
2016-11-20T06:14:35.588Z,23.68
2016-11-20T06:15:35.341Z,23.68
2016-11-20T06:16:35.655Z,23.6
2016-11-20T06:17:35.919Z,23.58
2016-11-20T06:18:35.615Z,23.68
2016-11-20T06:19:35.366Z,23.66
2016-11-20T06:20:37.311Z,23.6
2016-11-20T06:21:35.960Z,23.66
2016-11-20T06:22:36.584Z,23.63
2016-11-20T06:23:35.710Z,23.68
2016-11-20T06:24:35.715Z,23.6
2016-11-20T06:25:35.710Z,23.63
2016-11-20T06:26:35.678Z,23.66
2016-11-20T06:27:35.677Z,23.63
2016-11-20T06:28:35.686Z,23.61
2016-11-20T06:29:35.736Z,23.66
2016-11-20T06:30:35.695Z,23.55
2016-11-20T06:31:35.739Z,23.58
2016-11-20T06:32:35.710Z,23.69
2016-11-20T06:33:36.691Z,23.58
2016-11-20T06:34:35.719Z,23.6
2016-11-20T06:35:36.094Z,23.58
2016-11-20T06:36:36.048Z,23.55
2016-11-20T06:37:36.055Z,23.58
2016-11-20T06:38:35.744Z,23.51
2016-11-20T06:39:35.444Z,23.5
2016-11-20T06:40:36.156Z,23.58
2016-11-20T06:41:35.768Z,23.55
2016-11-20T06:42:35.846Z,23.48
2016-11-20T06:43:35.811Z,23.48
2016-11-20T06:44:36.149Z,23.48
2016-11-20T06:45:35.484Z,23.38
2016-11-20T06:46:35.488Z,23.48
2016-11-20T06:47:36.172Z,23.42
2016-11-20T06:48:35.510Z,23.42
2016-11-20T06:49:35.824Z,23.46
2016-11-20T06:50:35.881Z,23.4
2016-11-20T06:51:35.835Z,23.43
2016-11-20T06:52:35.844Z,23.39
2016-11-20T06:53:37.063Z,23.43
2016-11-20T06:54:35.906Z,23.43
2016-11-20T06:55:36.462Z,23.39
2016-11-20T06:56:35.870Z,23.46
2016-11-20T06:57:35.879Z,23.39
2016-11-20T06:58:35.946Z,23.46
2016-11-20T06:59:36.201Z,23.5
2016-11-20T07:00:35.894Z,23.43
2016-11-20T07:01:35.954Z,23.43
2016-11-20T07:02:35.592Z,23.36
2016-11-20T07:03:36.328Z,23.39
2016-11-20T07:04:35.640Z,23.39
2016-11-20T07:05:36.243Z,23.36
2016-11-20T07:06:36.813Z,23.33
2016-11-20T07:07:35.990Z,23.35
2016-11-20T07:08:36.259Z,23.39
2016-11-20T07:09:36.006Z,23.43
2016-11-20T07:10:35.961Z,23.28
2016-11-20T07:11:35.971Z,23.33
2016-11-20T07:12:35.712Z,23.32
2016-11-20T07:13:36.034Z,23.39
2016-11-20T07:14:35.673Z,23.36
2016-11-20T07:15:35.682Z,23.38
2016-11-20T07:16:36.051Z,23.36
2016-11-20T07:17:37.558Z,23.33
2016-11-20T07:18:36.378Z,23.46
2016-11-20T07:19:35.761Z,23.38
2016-11-20T07:20:36.347Z,23.31
2016-11-20T07:21:35.720Z,23.28
2016-11-20T07:22:36.043Z,23.28
2016-11-20T07:23:36.360Z,23.32
2016-11-20T07:24:36.053Z,23.31
2016-11-20T07:25:35.754Z,23.38
2016-11-20T07:26:36.253Z,23.38
2016-11-20T07:27:36.077Z,23.31
2016-11-20T07:28:36.443Z,23.31
2016-11-20T07:29:36.085Z,23.31
2016-11-20T07:30:36.453Z,23.33
2016-11-20T07:31:36.147Z,23.33
2016-11-20T07:32:36.472Z,23.32
2016-11-20T07:33:36.114Z,23.28
2016-11-20T07:34:36.444Z,23.31
2016-11-20T07:35:36.577Z,23.35
2016-11-20T07:36:36.447Z,23.38
2016-11-20T07:37:36.674Z,23.31
2016-11-20T07:38:36.201Z,23.35
2016-11-20T07:39:36.517Z,23.28
2016-11-20T07:40:36.474Z,23.23
2016-11-20T07:41:35.852Z,23.28
2016-11-20T07:42:36.175Z,23.36
2016-11-20T07:43:36.492Z,23.25
2016-11-20T07:44:36.238Z,23.32
2016-11-20T07:45:36.510Z,23.33
2016-11-20T07:46:35.887Z,23.31
2016-11-20T07:47:36.261Z,23.35
2016-11-20T07:48:37.331Z,23.33
2016-11-20T07:49:36.586Z,23.33
2016-11-20T07:50:36.591Z,23.36
2016-11-20T07:51:36.332Z,23.33
2016-11-20T07:52:36.598Z,23.27
2016-11-20T07:53:36.245Z,23.25
2016-11-20T07:54:35.990Z,23.2
2016-11-20T07:55:36.264Z,23.12
2016-11-20T07:56:36.315Z,23.23
2016-11-20T07:57:36.881Z,23.17
2016-11-20T07:58:36.590Z,23.27
2016-11-20T07:59:37.753Z,23.19
2016-11-20T08:00:36.701Z,23.17
2016-11-20T08:01:37.262Z,23.19
2016-11-20T08:02:36.669Z,23.19
2016-11-20T08:03:36.621Z,23.16
2016-11-20T08:04:36.006Z,23.2
2016-11-20T08:05:36.326Z,23.19
2016-11-20T08:06:36.329Z,23.19
2016-11-20T08:07:36.339Z,23.19
2016-11-20T08:08:36.395Z,23.17
2016-11-20T08:09:36.087Z,23.19
2016-11-20T08:10:36.360Z,23.2
2016-11-20T08:11:36.729Z,23.27
2016-11-20T08:12:37.371Z,23.2
2016-11-20T08:13:36.687Z,23.23
2016-11-20T08:14:36.386Z,23.2
2016-11-20T08:15:36.385Z,23.13
2016-11-20T08:16:36.447Z,23.2
2016-11-20T08:17:36.400Z,23.27
2016-11-20T08:18:36.709Z,23.15
2016-11-20T08:19:36.515Z,23.25
2016-11-20T08:20:36.423Z,23.17
2016-11-20T08:21:36.481Z,23.16
2016-11-20T08:22:36.431Z,23.28
2016-11-20T08:23:37.954Z,23.28
2016-11-20T08:24:36.760Z,23.35
2016-11-20T08:25:36.143Z,23.31
2016-11-20T08:26:36.460Z,23.35
2016-11-20T08:27:36.516Z,23.31
2016-11-20T08:28:36.475Z,23.23
2016-11-20T08:29:36.791Z,23.31
2016-11-20T08:30:37.350Z,23.32
2016-11-20T08:31:36.540Z,23.28
2016-11-20T08:32:36.506Z,23.27
2016-11-20T08:33:36.554Z,23.33
2016-11-20T08:34:36.874Z,23.36
2016-11-20T08:35:36.833Z,23.32
2016-11-20T08:36:36.212Z,23.33
2016-11-20T08:37:36.844Z,23.33
2016-11-20T08:38:36.541Z,23.32
2016-11-20T08:39:36.861Z,23.31
2016-11-20T08:40:36.239Z,23.32
2016-11-20T08:41:37.707Z,23.31
2016-11-20T08:42:36.303Z,23.31
2016-11-20T08:43:37.473Z,23.36
2016-11-20T08:45:06.019Z,23.38
2016-11-20T08:45:37.148Z,23.38
2016-11-20T08:46:36.590Z,23.4
2016-11-20T08:47:36.960Z,23.39
2016-11-20T08:48:37.014Z,23.46
2016-11-20T08:49:36.345Z,23.43
2016-11-20T08:50:36.982Z,23.4
2016-11-20T08:51:36.937Z,23.42
2016-11-20T08:52:36.315Z,23.54
2016-11-20T08:53:36.997Z,23.48
2016-11-20T08:54:36.642Z,23.46
2016-11-20T08:55:36.960Z,23.5
2016-11-20T08:56:37.777Z,23.48
2016-11-20T08:57:36.721Z,23.46
2016-11-20T08:58:36.723Z,23.51
2016-11-20T08:59:36.759Z,23.51
2016-11-20T09:00:37.003Z,23.46
2016-11-20T09:01:36.689Z,23.53
2016-11-20T09:02:36.383Z,23.47
2016-11-20T09:03:37.079Z,23.53
2016-11-20T09:04:36.794Z,23.54
2016-11-20T09:05:36.409Z,23.58
2016-11-20T09:06:36.770Z,23.5
2016-11-20T09:07:36.779Z,23.54
2016-11-20T09:08:36.736Z,23.6
2016-11-20T09:09:37.054Z,23.55
2016-11-20T09:10:36.746Z,23.6
2016-11-20T09:11:37.069Z,23.55
2016-11-20T09:12:36.760Z,23.58
2016-11-20T09:13:36.457Z,23.63
2016-11-20T09:14:37.514Z,23.54
2016-11-20T09:15:37.095Z,23.55
2016-11-20T09:16:37.304Z,23.55
2016-11-20T09:17:36.579Z,23.58
2016-11-20T09:18:37.114Z,23.58
2016-11-20T09:19:36.812Z,23.57
2016-11-20T09:20:37.132Z,23.6
2016-11-20T09:21:36.872Z,23.61
2016-11-20T09:22:36.890Z,23.54
2016-11-20T09:23:37.146Z,23.51
2016-11-20T09:24:37.153Z,23.58
2016-11-20T09:25:36.911Z,23.53
2016-11-20T09:26:37.223Z,23.48
2016-11-20T09:27:38.461Z,23.47
2016-11-20T09:28:36.869Z,23.6
2016-11-20T09:29:37.263Z,23.5
2016-11-20T09:30:37.249Z,23.51
2016-11-20T09:31:36.937Z,23.51
2016-11-20T09:32:37.040Z,23.55
2016-11-20T09:33:36.909Z,23.5
2016-11-20T09:34:36.597Z,23.51
2016-11-20T09:35:36.599Z,23.5
2016-11-20T09:36:37.245Z,23.47
2016-11-20T09:37:36.980Z,23.5
2016-11-20T09:38:37.249Z,23.43
2016-11-20T09:39:36.679Z,23.43
2016-11-20T09:40:36.954Z,23.4
2016-11-20T09:41:37.001Z,23.5
2016-11-20T09:42:37.063Z,23.39
2016-11-20T09:43:36.657Z,23.36
2016-11-20T09:44:37.026Z,23.36
2016-11-20T09:45:36.670Z,23.4
2016-11-20T09:46:37.304Z,23.36
2016-11-20T09:47:37.593Z,23.36
2016-11-20T09:48:37.003Z,23.31
2016-11-20T09:49:37.320Z,23.32
2016-11-20T09:50:37.327Z,23.36
2016-11-20T09:51:37.023Z,23.42
2016-11-20T09:52:36.718Z,23.27
2016-11-20T09:53:37.037Z,23.31
2016-11-20T09:54:37.093Z,23.31
2016-11-20T09:55:37.047Z,23.32
2016-11-20T09:56:36.798Z,23.2
2016-11-20T09:57:37.063Z,23.22
2016-11-20T09:58:37.918Z,23.12
2016-11-20T09:59:37.073Z,23.13
2016-11-20T10:00:36.916Z,23.25
2016-11-20T10:01:36.783Z,23.28
2016-11-20T10:02:37.091Z,23.19
2016-11-20T10:03:37.126Z,23.15
2016-11-20T10:04:37.469Z,23.15
2016-11-20T10:05:36.804Z,23.16
2016-11-20T10:06:37.124Z,23.17
2016-11-20T10:07:37.132Z,23.17
2016-11-20T10:08:37.132Z,23.13
2016-11-20T10:09:37.199Z,23.13
2016-11-20T10:10:37.463Z,23.19
2016-11-20T10:11:38.419Z,23.04
2016-11-20T10:12:37.161Z,23.12
2016-11-20T10:13:37.168Z,23.04
2016-11-20T10:14:36.861Z,23.17
2016-11-20T10:15:37.181Z,23.15
2016-11-20T10:16:37.242Z,23.02
2016-11-20T10:17:37.194Z,23.02
2016-11-20T10:18:37.251Z,23.01
2016-11-20T10:19:37.555Z,22.91
2016-11-20T10:20:36.902Z,23.02
2016-11-20T10:21:37.222Z,22.98
2016-11-20T10:22:36.920Z,23.02
2016-11-20T10:23:37.284Z,23.02
2016-11-20T10:24:37.608Z,23.02
2016-11-20T10:25:36.935Z,23.09
2016-11-20T10:26:37.257Z,22.91
2016-11-20T10:27:37.573Z,23.02
2016-11-20T10:28:37.268Z,23.07
2016-11-20T10:29:36.963Z,23.05
2016-11-20T10:30:37.282Z,23.09
2016-11-20T10:31:38.240Z,23.01
2016-11-20T10:32:37.300Z,23.04
2016-11-20T10:33:37.671Z,22.97
2016-11-20T10:34:37.673Z,22.95
2016-11-20T10:35:37.005Z,22.95
2016-11-20T10:36:37.322Z,22.91
2016-11-20T10:37:37.331Z,22.97
2016-11-20T10:38:37.335Z,22.91
2016-11-20T10:39:37.390Z,22.94
2016-11-20T10:40:37.403Z,22.94
2016-11-20T10:41:37.759Z,22.9
2016-11-20T10:42:37.609Z,22.83
2016-11-20T10:43:37.375Z,22.8
2016-11-20T10:44:38.963Z,22.86
2016-11-20T10:45:37.066Z,22.9
2016-11-20T10:46:38.103Z,22.86
2016-11-20T10:47:37.705Z,22.85
2016-11-20T10:48:37.454Z,22.79
2016-11-20T10:49:37.093Z,22.85
2016-11-20T10:50:37.525Z,22.83
2016-11-20T10:51:37.111Z,22.79
2016-11-20T10:52:37.478Z,22.79
2016-11-20T10:53:37.269Z,22.79
2016-11-20T10:54:37.445Z,22.79
2016-11-20T10:55:39.373Z,22.85
2016-11-20T10:56:37.453Z,22.83
2016-11-20T10:57:37.854Z,22.82
2016-11-20T10:58:37.521Z,22.82
2016-11-20T10:59:37.788Z,22.82
2016-11-20T11:00:37.530Z,22.79
2016-11-20T11:01:37.489Z,22.77
2016-11-20T11:02:37.858Z,22.8
2016-11-20T11:03:37.814Z,22.79
2016-11-20T11:04:37.247Z,22.7
2016-11-20T11:05:37.565Z,22.72
2016-11-20T11:06:37.308Z,22.68
2016-11-20T11:07:37.843Z,22.64
2016-11-20T11:08:38.000Z,22.67
2016-11-20T11:09:37.856Z,22.68
2016-11-20T11:10:37.550Z,22.68
2016-11-20T11:11:37.555Z,22.7
2016-11-20T11:12:37.305Z,22.62
2016-11-20T11:13:37.572Z,22.67
2016-11-20T11:14:37.625Z,22.61
2016-11-20T11:15:37.633Z,22.57
2016-11-20T11:16:37.276Z,22.6
2016-11-20T11:17:39.011Z,22.64
2016-11-20T11:18:37.604Z,22.57
2016-11-20T11:19:37.963Z,22.62
2016-11-20T11:20:37.927Z,22.6
2016-11-20T11:21:37.310Z,22.57
2016-11-20T11:22:37.683Z,22.58
2016-11-20T11:23:37.694Z,22.57
2016-11-20T11:24:37.648Z,22.61
2016-11-20T11:25:37.651Z,22.57
2016-11-20T11:26:37.708Z,22.57
2016-11-20T11:27:37.666Z,22.54
2016-11-20T11:28:38.583Z,22.54
2016-11-20T11:29:37.680Z,22.61
2016-11-20T11:30:38.001Z,22.58
2016-11-20T11:31:38.005Z,22.46
2016-11-20T11:32:38.804Z,22.47
2016-11-20T11:33:37.708Z,22.52
2016-11-20T11:34:37.762Z,22.47
2016-11-20T11:35:37.770Z,22.52
2016-11-20T11:36:37.730Z,22.46
2016-11-20T11:37:37.784Z,22.49
2016-11-20T11:38:38.051Z,22.47
2016-11-20T11:39:37.993Z,22.46
2016-11-20T11:40:38.064Z,22.45
2016-11-20T11:41:37.808Z,22.52
2016-11-20T11:42:38.080Z,22.42
2016-11-20T11:43:38.422Z,22.46
2016-11-20T11:44:38.143Z,22.55
2016-11-20T11:45:37.578Z,22.49
2016-11-20T11:46:38.104Z,22.47
2016-11-20T11:47:37.801Z,22.46
2016-11-20T11:48:37.592Z,22.49
2016-11-20T11:49:38.127Z,22.52
2016-11-20T11:50:37.970Z,22.51
2016-11-20T11:51:37.881Z,22.46
2016-11-20T11:52:39.124Z,22.42
2016-11-20T11:53:37.892Z,22.52
2016-11-20T11:54:38.510Z,22.49
2016-11-20T11:55:37.902Z,22.49
2016-11-20T11:56:37.866Z,22.55
2016-11-20T11:57:37.868Z,22.46
2016-11-20T11:58:38.216Z,22.4
2016-11-20T11:59:37.882Z,22.33
2016-11-20T12:00:38.301Z,22.37
2016-11-20T12:01:38.232Z,22.42
2016-11-20T12:02:37.952Z,22.43
2016-11-20T12:03:39.273Z,22.43
2016-11-20T12:04:37.598Z,22.42
2016-11-20T12:05:37.926Z,22.43
2016-11-20T12:06:38.240Z,22.42
2016-11-20T12:07:38.254Z,22.42
2016-11-20T12:08:38.258Z,22.4
2016-11-20T12:09:37.634Z,22.27
2016-11-20T12:10:37.966Z,22.43
2016-11-20T12:11:38.326Z,22.31
2016-11-20T12:12:38.019Z,22.28
2016-11-20T12:13:38.075Z,22.28
2016-11-20T12:14:37.672Z,22.24
2016-11-20T12:15:38.298Z,22.31
2016-11-20T12:16:38.359Z,22.31
2016-11-20T12:17:38.345Z,22.27
2016-11-20T12:18:38.009Z,22.33
2016-11-20T12:19:38.427Z,22.31
2016-11-20T12:20:38.024Z,22.31
2016-11-20T12:21:38.077Z,22.25
2016-11-20T12:22:38.346Z,22.27
2016-11-20T12:23:38.042Z,22.25
2016-11-20T12:24:37.788Z,22.31
2016-11-20T12:25:38.704Z,22.31
2016-11-20T12:26:38.059Z,22.31
2016-11-20T12:27:38.434Z,22.31
2016-11-20T12:28:38.072Z,22.31
2016-11-20T12:29:39.245Z,22.31
2016-11-20T12:30:38.455Z,22.25
2016-11-20T12:31:38.147Z,22.28
2016-11-20T12:32:38.151Z,22.21
2016-11-20T12:33:38.107Z,22.21
2016-11-20T12:34:38.435Z,22.28
2016-11-20T12:35:38.168Z,22.24
2016-11-20T12:36:38.546Z,22.22
2016-11-20T12:37:38.503Z,22.22
2016-11-20T12:38:38.552Z,22.2
2016-11-20T12:39:38.506Z,22.25
2016-11-20T12:40:39.377Z,22.22
2016-11-20T12:41:38.473Z,22.22
2016-11-20T12:42:38.217Z,22.22
2016-11-20T12:43:38.174Z,22.22
2016-11-20T12:44:37.914Z,22.2
2016-11-20T12:45:38.190Z,22.21
2016-11-20T12:46:38.192Z,22.17
2016-11-20T12:47:38.251Z,22.2
2016-11-20T12:48:38.208Z,22.15
2016-11-20T12:49:38.220Z,22.21
2016-11-20T12:50:37.956Z,22.15
2016-11-20T12:51:39.542Z,22.17
2016-11-20T12:52:38.546Z,22.15
2016-11-20T12:53:38.290Z,22.17
2016-11-20T12:54:38.662Z,22.2
2016-11-20T12:55:37.985Z,22.14
2016-11-20T12:56:38.266Z,22.17
2016-11-20T12:57:38.259Z,22.14